Time;durP1;ratioP1;P1;durP2;ratioP2;P2;SDS_P1;SDS_P2;PMS_P1;PMS_P2;Temp;Humidity;BMP_temperature;BMP_pressure;BME280_temperature;BME280_humidity;BME280_pressure;Samples;Min_cycle;Max_cycle;Signal;HPM_P1;HPM_P2
2022/01/07 00:01:58;;;;;;;33.75;13.20;;;-3.00;99.90;;;;;;5046523;28;20040;-79
2022/01/07 00:04:24;;;;;;;37.10;13.60;;;-3.10;99.90;;;;;;5050632;28;20021;-77
2022/01/07 00:06:49;;;;;;;37.78;13.68;;;-3.10;99.90;;;;;;5030237;28;20037;-78
2022/01/07 00:09:15;;;;;;;38.55;13.80;;;-3.10;99.90;;;;;;5042081;28;20105;-79
2022/01/07 00:11:41;;;;;;;42.35;13.38;;;-3.10;99.90;;;;;;5041132;28;20394;-78
2022/01/07 00:14:06;;;;;;;35.45;13.23;;;-3.10;99.90;;;;;;5047406;28;20444;-79
2022/01/07 00:16:32;;;;;;;39.97;13.20;;;-3.20;99.90;;;;;;5021730;28;20034;-80
2022/01/07 00:18:58;;;;;;;35.58;13.63;;;-3.20;99.90;;;;;;5030118;28;20036;-80
2022/01/07 00:21:24;;;;;;;36.33;13.90;;;-3.30;99.90;;;;;;5031847;28;20029;-76
2022/01/07 00:23:50;;;;;;;34.35;12.82;;;-3.30;99.90;;;;;;5030795;28;20037;-78
2022/01/07 00:26:15;;;;;;;33.22;13.38;;;-3.30;99.90;;;;;;5041373;28;20116;-79
2022/01/07 00:28:41;;;;;;;33.55;12.85;;;-3.30;99.90;;;;;;5049484;28;20047;-77
2022/01/07 00:31:07;;;;;;;32.60;12.18;;;-3.30;99.90;;;;;;5046960;28;20025;-78
2022/01/07 00:33:32;;;;;;;37.63;12.52;;;-3.20;99.90;;;;;;5033324;28;20025;-78
2022/01/07 00:35:59;;;;;;;32.58;12.85;;;-3.10;99.90;;;;;;5029898;28;20029;-77
2022/01/07 00:38:27;;;;;;;30.65;12.10;;;-3.00;99.90;;;;;;5030316;28;20041;-79
2022/01/07 00:40:54;;;;;;;35.65;12.88;;;-3.00;99.90;;;;;;5048007;28;20116;-79
2022/01/07 00:43:19;;;;;;;32.55;12.15;;;-2.90;99.90;;;;;;5039011;28;20031;-81
2022/01/07 00:45:45;;;;;;;32.85;12.55;;;-3.00;99.90;;;;;;5030102;28;20503;-80
2022/01/07 00:48:11;;;;;;;28.30;11.65;;;-3.10;99.90;;;;;;5012806;28;20161;-79
2022/01/07 00:50:37;;;;;;;32.08;12.07;;;-3.10;99.90;;;;;;5012630;28;20030;-74
2022/01/07 00:53:03;;;;;;;29.15;11.70;;;-3.20;99.90;;;;;;5046497;28;20544;-81
2022/01/07 00:55:29;;;;;;;27.10;11.80;;;-3.30;99.90;;;;;;5044115;28;20150;-80
2022/01/07 00:57:55;;;;;;;31.88;10.98;;;-3.30;99.90;;;;;;5049565;28;20028;-78
2022/01/07 01:00:23;;;;;;;29.38;11.68;;;-3.40;99.90;;;;;;5046135;28;20476;-80
2022/01/07 01:02:49;;;;;;;33.80;12.68;;;-3.40;99.90;;;;;;5049249;28;20028;-81
2022/01/07 01:05:15;;;;;;;32.80;11.82;;;-3.30;99.90;;;;;;5044262;28;20044;-78
2022/01/07 01:07:41;;;;;;;30.42;12.00;;;-3.40;99.90;;;;;;5045187;28;20036;-75
2022/01/07 01:10:09;;;;;;;29.75;12.02;;;-3.40;99.90;;;;;;5049538;28;20032;-80
2022/01/07 01:12:36;;;;;;;28.52;11.48;;;-3.40;99.90;;;;;;5049913;28;20465;-79
2022/01/07 01:15:05;;;;;;;31.05;12.60;;;-3.40;99.90;;;;;;5036747;28;20040;-81
2022/01/07 01:17:31;;;;;;;31.40;11.90;;;-3.40;99.90;;;;;;5032321;28;20120;-80
2022/01/07 01:19:57;;;;;;;28.75;11.32;;;-3.40;99.90;;;;;;5047139;28;20520;-80
2022/01/07 01:22:22;;;;;;;30.05;11.38;;;-3.30;99.90;;;;;;5046835;28;20033;-80
2022/01/07 01:24:48;;;;;;;31.95;11.45;;;-3.30;99.90;;;;;;5045762;28;20486;-79
2022/01/07 01:27:14;;;;;;;30.20;11.98;;;-3.30;99.90;;;;;;5030384;28;20029;-80
2022/01/07 01:29:40;;;;;;;34.58;10.88;;;-3.40;99.90;;;;;;5042633;28;20135;-75
2022/01/07 01:32:06;;;;;;;25.88;10.02;;;-3.40;99.90;;;;;;5048363;28;20025;-80
2022/01/07 01:34:31;;;;;;;29.48;11.45;;;-3.40;99.90;;;;;;5047308;28;20033;-79
2022/01/07 01:36:57;;;;;;;30.13;11.25;;;-3.40;99.90;;;;;;5044548;28;20053;-80
2022/01/07 01:39:23;;;;;;;29.92;11.77;;;-3.40;99.90;;;;;;5029928;28;20041;-81
2022/01/07 01:41:49;;;;;;;30.77;11.13;;;-3.50;99.90;;;;;;5029558;28;20022;-80
2022/01/07 01:44:15;;;;;;;31.42;12.10;;;-3.50;99.90;;;;;;5044033;28;20029;-79
2022/01/07 01:46:41;;;;;;;29.42;11.48;;;-3.50;99.90;;;;;;5048361;28;20106;-74
2022/01/07 01:49:07;;;;;;;30.90;12.05;;;-3.50;99.90;;;;;;5031089;28;20068;-81
2022/01/07 01:51:34;;;;;;;28.38;10.55;;;-3.60;99.90;;;;;;5049180;28;20482;-80
2022/01/07 01:54:00;;;;;;;30.48;11.73;;;-3.60;99.90;;;;;;5015783;28;20052;-80
2022/01/07 01:56:26;;;;;;;29.75;11.48;;;-3.50;99.90;;;;;;5044767;28;20378;-81
2022/01/07 01:58:51;;;;;;;27.08;11.88;;;-3.50;99.90;;;;;;5047489;28;20033;-78
2022/01/07 02:01:17;;;;;;;32.80;12.07;;;-3.50;99.90;;;;;;5023445;28;20033;-79
2022/01/07 02:03:43;;;;;;;28.08;11.30;;;-3.60;99.90;;;;;;5046722;28;20065;-73
2022/01/07 02:06:09;;;;;;;31.15;12.05;;;-3.60;99.90;;;;;;5029007;28;20418;-80
2022/01/07 02:08:36;;;;;;;29.98;11.98;;;-3.50;99.90;;;;;;5029289;28;20037;-79
2022/01/07 02:11:03;;;;;;;31.05;11.75;;;-3.50;99.90;;;;;;5029595;28;20028;-80
2022/01/07 02:13:29;;;;;;;33.38;11.95;;;-3.50;99.90;;;;;;5028919;28;20128;-79
2022/01/07 02:15:54;;;;;;;29.13;10.90;;;-3.60;99.90;;;;;;5017329;28;20124;-79
2022/01/07 02:18:20;;;;;;;32.20;12.13;;;-3.60;99.90;;;;;;5048917;28;20091;-80
2022/01/07 02:20:47;;;;;;;33.00;11.95;;;-3.70;99.90;;;;;;5034067;28;20037;-74
2022/01/07 02:23:13;;;;;;;47.83;17.00;;;-3.70;99.90;;;;;;5038464;28;20061;-80
2022/01/07 02:25:39;;;;;;;49.83;18.67;;;-3.70;99.90;;;;;;5043648;28;20036;-80
2022/01/07 02:28:05;;;;;;;55.42;15.88;;;-3.70;99.90;;;;;;5047291;28;20029;-80
2022/01/07 02:30:31;;;;;;;36.63;13.13;;;-3.60;99.90;;;;;;5049140;28;20038;-80
2022/01/07 02:32:58;;;;;;;37.85;12.85;;;-3.60;99.90;;;;;;5045629;28;20461;-79
2022/01/07 02:35:27;;;;;;;36.58;12.80;;;-3.60;99.90;;;;;;5052860;28;20031;-79
2022/01/07 02:37:53;;;;;;;36.60;13.35;;;-3.60;99.90;;;;;;5041425;28;20034;-81
2022/01/07 02:40:19;;;;;;;39.63;13.32;;;-3.60;99.90;;;;;;5053343;28;20087;-80
2022/01/07 02:42:45;;;;;;;40.28;13.85;;;-3.50;99.90;;;;;;5042890;28;20033;-75
2022/01/07 02:45:11;;;;;;;41.42;16.00;;;-3.50;99.90;;;;;;5033433;28;20061;-81
2022/01/07 02:47:55;;;;;;;40.53;14.98;;;-3.60;99.90;;;;;;5017930;28;20049;-81
2022/01/07 02:50:33;;;;;;;43.17;14.77;;;-3.60;99.90;;;;;;5033171;28;20045;-81
2022/01/07 02:53:00;;;;;;;38.00;13.98;;;-3.60;99.90;;;;;;5016698;28;20025;-81
2022/01/07 02:55:27;;;;;;;35.20;12.88;;;-3.70;99.90;;;;;;5050000;28;20056;-81
2022/01/07 02:57:53;;;;;;;31.95;11.95;;;-3.70;99.90;;;;;;5032376;28;20035;-81
2022/01/07 03:00:20;;;;;;;31.10;12.43;;;-3.80;99.90;;;;;;5044947;28;20028;-81
2022/01/07 03:02:48;;;;;;;31.85;12.75;;;-3.80;99.90;;;;;;5052115;28;20029;-75
2022/01/07 03:05:15;;;;;;;33.47;12.25;;;-3.80;99.90;;;;;;5044626;28;20033;-80
2022/01/07 03:07:42;;;;;;;32.33;12.35;;;-3.80;99.90;;;;;;5043923;28;20029;-80
2022/01/07 03:10:10;;;;;;;33.55;11.60;;;-3.80;99.90;;;;;;5031399;28;20103;-82
2022/01/07 03:12:37;;;;;;;39.10;12.57;;;-3.80;99.90;;;;;;5032591;28;20030;-81
2022/01/07 03:15:06;;;;;;;34.38;12.13;;;-3.70;99.90;;;;;;5033994;28;20041;-81
2022/01/07 03:17:32;;;;;;;33.42;12.77;;;-3.70;99.90;;;;;;5049490;28;20100;-81
2022/01/07 03:19:58;;;;;;;36.00;12.18;;;-3.70;99.90;;;;;;5051811;28;20442;-82
2022/01/07 03:22:24;;;;;;;31.35;11.52;;;-3.70;99.90;;;;;;5043782;28;20041;-78
2022/01/07 03:24:49;;;;;;;31.67;11.00;;;-3.70;99.90;;;;;;5036005;28;20112;-74
2022/01/07 03:27:15;;;;;;;29.73;11.10;;;-3.70;99.90;;;;;;5014664;28;20068;-79
2022/01/07 03:29:41;;;;;;;31.52;12.75;;;-3.70;99.90;;;;;;5050872;28;20029;-79
2022/01/07 03:32:07;;;;;;;37.55;13.77;;;-3.80;99.90;;;;;;5040382;28;20485;-80
2022/01/07 03:34:32;;;;;;;37.25;13.07;;;-3.90;99.90;;;;;;5051725;28;20021;-81
2022/01/07 03:36:58;;;;;;;34.78;13.38;;;-3.90;99.90;;;;;;5049837;28;20040;-81
2022/01/07 03:39:24;;;;;;;37.42;13.65;;;-3.90;99.90;;;;;;5033924;28;20428;-79
2022/01/07 03:41:49;;;;;;;33.50;12.32;;;-3.90;99.90;;;;;;5044756;28;20029;-74
2022/01/07 03:44:16;;;;;;;36.50;13.27;;;-3.90;99.90;;;;;;5035205;28;20465;-79
2022/01/07 03:46:41;;;;;;;32.10;13.05;;;-3.90;99.90;;;;;;5036157;28;20467;-80
2022/01/07 03:49:07;;;;;;;38.97;13.38;;;-3.90;99.90;;;;;;5029162;28;20061;-81
2022/01/07 03:51:32;;;;;;;43.97;13.65;;;-3.90;99.90;;;;;;5013775;28;20477;-79
2022/01/07 03:53:58;;;;;;;35.88;13.20;;;-3.90;99.90;;;;;;5035128;28;20036;-80
2022/01/07 03:56:24;;;;;;;39.83;14.13;;;-3.90;99.90;;;;;;5047314;28;20047;-81
2022/01/07 03:58:49;;;;;;;35.80;13.38;;;-3.90;99.90;;;;;;5032339;28;20041;-74
2022/01/07 04:01:15;;;;;;;34.30;14.18;;;-3.90;99.90;;;;;;5040362;28;20521;-80
2022/01/07 04:03:41;;;;;;;37.38;13.30;;;-3.90;99.90;;;;;;5050876;28;20776;-79
2022/01/07 04:06:06;;;;;;;32.70;12.18;;;-3.90;99.90;;;;;;5049737;28;20025;-79
2022/01/07 04:08:32;;;;;;;29.52;11.82;;;-3.90;99.90;;;;;;5029032;28;20120;-80
2022/01/07 04:10:58;;;;;;;34.92;12.88;;;-3.90;99.90;;;;;;5030739;28;20040;-80
2022/01/07 04:13:23;;;;;;;34.30;12.55;;;-3.90;99.90;;;;;;5045984;28;20049;-77
2022/01/07 04:15:49;;;;;;;30.88;11.70;;;-3.90;99.90;;;;;;5047412;28;20029;-74
2022/01/07 04:18:15;;;;;;;30.58;11.27;;;-3.90;99.90;;;;;;5050502;28;20033;-78
2022/01/07 04:20:40;;;;;;;33.88;12.13;;;-3.90;99.90;;;;;;5048914;28;20045;-79
2022/01/07 04:23:07;;;;;;;38.42;12.40;;;-3.90;99.90;;;;;;5032344;28;20040;-80
2022/01/07 04:25:34;;;;;;;33.40;12.45;;;-4.00;99.90;;;;;;5047357;28;20044;-79
2022/01/07 04:28:02;;;;;;;31.52;11.82;;;-4.00;99.90;;;;;;5047653;28;20037;-81
2022/01/07 04:30:31;;;;;;;35.00;13.40;;;-4.00;99.90;;;;;;5050700;28;20024;-81
2022/01/07 04:32:57;;;;;;;30.73;12.02;;;-4.00;99.90;;;;;;5049160;28;20029;-82
2022/01/07 04:35:24;;;;;;;33.63;12.80;;;-4.00;99.90;;;;;;5031031;28;20032;-79
2022/01/07 04:37:51;;;;;;;36.65;13.70;;;-4.00;99.90;;;;;;5049673;28;20033;-75
2022/01/07 04:40:17;;;;;;;32.53;11.80;;;-4.10;99.90;;;;;;5049791;28;20037;-80
2022/01/07 04:42:43;;;;;;;25.05;9.00;;;-4.10;99.90;;;;;;5046581;28;20037;-81
2022/01/07 04:45:10;;;;;;;29.88;12.23;;;-3.90;99.90;;;;;;5039747;28;20047;-80
2022/01/07 04:47:36;;;;;;;35.05;12.82;;;-3.90;99.90;;;;;;5036271;28;20116;-81
2022/01/07 04:50:09;;;;;;;38.15;13.00;;;-3.90;99.90;;;;;;5029688;28;20030;-80
2022/01/07 04:52:35;;;;;;;29.00;9.63;;;-4.00;99.90;;;;;;5017980;28;20029;-80
2022/01/07 04:55:02;;;;;;;21.88;8.15;;;-4.00;99.90;;;;;;5038377;28;20029;-80
2022/01/07 04:57:27;;;;;;;18.58;6.57;;;-3.90;99.90;;;;;;5039665;28;20029;-80
2022/01/07 04:59:53;;;;;;;20.20;6.78;;;-3.80;99.90;;;;;;5035372;28;20544;-73
2022/01/07 05:02:22;;;;;;;25.90;9.73;;;-3.80;99.90;;;;;;5042667;28;20036;-80
2022/01/07 05:04:47;;;;;;;22.95;7.60;;;-3.70;99.90;;;;;;5049493;28;20476;-78
2022/01/07 05:07:13;;;;;;;20.45;6.75;;;-3.70;99.90;;;;;;5044191;28;20086;-80
2022/01/07 05:09:39;;;;;;;23.55;7.13;;;-3.70;99.90;;;;;;5049878;28;20469;-81
2022/01/07 05:12:05;;;;;;;24.80;8.07;;;-3.60;99.90;;;;;;5048330;28;20032;-79
2022/01/07 05:14:31;;;;;;;21.00;6.55;;;-3.60;99.90;;;;;;5038997;28;20060;-81
2022/01/07 05:16:57;;;;;;;19.92;6.78;;;-3.60;99.90;;;;;;5039809;28;20108;-74
2022/01/07 05:19:23;;;;;;;19.67;6.45;;;-3.50;99.90;;;;;;5048110;28;20079;-81
2022/01/07 05:21:48;;;;;;;23.60;8.05;;;-3.50;99.90;;;;;;5049323;28;20025;-79
2022/01/07 05:24:14;;;;;;;18.95;7.05;;;-3.50;99.90;;;;;;5021832;28;20033;-80
2022/01/07 05:26:40;;;;;;;23.20;7.30;;;-3.50;99.90;;;;;;5031191;28;20061;-79
2022/01/07 05:29:05;;;;;;;21.95;6.82;;;-3.40;99.90;;;;;;5045817;28;20056;-80
2022/01/07 05:31:31;;;;;;;20.55;7.65;;;-3.40;99.90;;;;;;5042661;28;20029;-80
2022/01/07 05:33:57;;;;;;;23.45;8.65;;;-3.30;99.90;;;;;;5041362;28;20042;-72
2022/01/07 05:36:23;;;;;;;28.88;9.95;;;-3.40;99.90;;;;;;5033310;28;20036;-80
2022/01/07 05:38:49;;;;;;;28.63;10.70;;;-3.50;99.90;;;;;;5037538;28;20043;-80
2022/01/07 05:41:15;;;;;;;25.88;10.43;;;-3.60;99.90;;;;;;5045997;28;20033;-77
2022/01/07 05:43:41;;;;;;;25.50;10.25;;;-3.60;99.90;;;;;;5044329;28;20033;-77
2022/01/07 05:46:12;;;;;;;33.22;11.10;;;-3.80;99.90;;;;;;5032990;28;20032;-79
2022/01/07 05:48:38;;;;;;;27.63;10.60;;;-3.80;99.90;;;;;;5034114;28;20044;-80
2022/01/07 05:51:04;;;;;;;33.88;12.65;;;-3.80;99.90;;;;;;5031985;28;20029;-79
2022/01/07 05:53:29;;;;;;;29.25;11.52;;;-3.80;99.90;;;;;;5048978;28;20032;-81
2022/01/07 05:55:55;;;;;;;37.60;12.88;;;-3.90;99.90;;;;;;5033789;28;20029;-74
2022/01/07 05:58:21;;;;;;;26.75;10.38;;;-3.90;99.90;;;;;;5047484;28;20028;-80
2022/01/07 06:00:47;;;;;;;28.27;9.73;;;-4.00;99.90;;;;;;5042642;28;20501;-80
2022/01/07 06:03:13;;;;;;;22.88;8.05;;;-4.00;99.90;;;;;;5048038;28;20078;-82
2022/01/07 06:05:39;;;;;;;21.38;7.53;;;-3.70;99.90;;;;;;5039783;28;20026;-80
2022/01/07 06:08:04;;;;;;;21.77;7.18;;;-3.50;99.90;;;;;;5041520;28;20044;-79
2022/01/07 06:10:30;;;;;;;23.40;7.60;;;-3.40;99.90;;;;;;5052710;28;20068;-80
2022/01/07 06:12:56;;;;;;;21.20;7.53;;;-3.20;99.90;;;;;;5041222;28;20103;-74
2022/01/07 06:15:21;;;;;;;25.92;8.82;;;-3.10;99.90;;;;;;5044018;28;20080;-78
2022/01/07 06:17:47;;;;;;;25.20;10.43;;;-3.10;99.90;;;;;;5033098;28;20036;-79
2022/01/07 06:20:13;;;;;;;25.65;9.38;;;-3.30;99.90;;;;;;5041962;28;20038;-80
2022/01/07 06:22:39;;;;;;;24.42;9.52;;;-3.40;99.90;;;;;;5040273;28;20109;-79
2022/01/07 06:25:05;;;;;;;20.95;6.95;;;-3.40;99.90;;;;;;5043320;28;20035;-80
2022/01/07 06:27:30;;;;;;;21.42;6.90;;;-3.40;99.90;;;;;;5040754;28;20041;-81
2022/01/07 06:29:57;;;;;;;25.23;7.10;;;-3.40;99.90;;;;;;5036006;28;20037;-78
2022/01/07 06:32:23;;;;;;;28.70;10.23;;;-3.30;99.90;;;;;;5042345;28;20457;-80
2022/01/07 06:34:50;;;;;;;24.00;9.93;;;-3.30;99.90;;;;;;5039038;28;20034;-80
2022/01/07 06:37:15;;;;;;;33.28;10.68;;;-3.40;99.90;;;;;;5042068;28;20029;-80
2022/01/07 06:39:41;;;;;;;28.27;10.15;;;-3.50;99.90;;;;;;5042048;28;20071;-81
2022/01/07 06:42:07;;;;;;;22.80;9.23;;;-3.50;99.90;;;;;;5044128;28;20032;-80
2022/01/07 06:44:34;;;;;;;31.52;10.15;;;-3.50;99.90;;;;;;5048051;28;20040;-79
2022/01/07 06:46:59;;;;;;;27.80;12.20;;;-3.50;99.90;;;;;;5046914;28;20041;-73
2022/01/07 06:49:25;;;;;;;30.83;11.10;;;-3.50;99.90;;;;;;5008861;28;20455;-80
2022/01/07 06:51:51;;;;;;;25.58;9.55;;;-3.50;99.90;;;;;;5023816;28;20086;-78
2022/01/07 06:54:17;;;;;;;28.52;10.20;;;-3.40;99.90;;;;;;5047228;28;20064;-80
2022/01/07 06:56:44;;;;;;;25.55;9.63;;;-3.40;99.90;;;;;;5050759;28;20037;-79
2022/01/07 06:59:13;;;;;;;25.50;9.05;;;-3.30;99.90;;;;;;5041456;28;20124;-79
2022/01/07 07:01:45;;;;;;;26.70;9.63;;;-3.20;99.90;;;;;;5050484;28;20029;-80
2022/01/07 07:04:10;;;;;;;25.08;9.50;;;-3.20;99.90;;;;;;5045279;28;20024;-80
2022/01/07 07:06:36;;;;;;;26.40;9.25;;;-3.10;99.90;;;;;;5046108;28;20154;-73
2022/01/07 07:09:03;;;;;;;22.70;9.50;;;-3.10;99.90;;;;;;5047600;28;20037;-72
2022/01/07 07:11:31;;;;;;;25.08;8.55;;;-3.10;99.90;;;;;;5044244;28;20103;-78
2022/01/07 07:13:57;;;;;;;19.88;7.95;;;-3.00;99.90;;;;;;5032977;28;20049;-73
2022/01/07 07:16:22;;;;;;;23.98;8.93;;;-2.90;99.90;;;;;;5049246;28;20634;-77
2022/01/07 07:18:48;;;;;;;24.92;8.27;;;-3.00;99.90;;;;;;5033592;28;20041;-78
2022/01/07 07:21:14;;;;;;;23.75;8.85;;;-2.90;99.90;;;;;;5043411;28;20080;-78
2022/01/07 07:23:40;;;;;;;24.13;7.90;;;-2.90;99.90;;;;;;5020289;28;20108;-77
2022/01/07 07:26:06;;;;;;;23.33;7.15;;;-2.90;99.90;;;;;;5041067;28;20358;-75
2022/01/07 07:28:36;;;;;;;19.88;7.45;;;-2.90;99.90;;;;;;5043168;28;20064;-73
2022/01/07 07:31:11;;;;;;;20.65;7.45;;;-2.80;99.90;;;;;;5042607;28;20091;-72
2022/01/07 07:36:31;;;;;;;22.67;8.88;;;-2.80;99.90;;;;;;5009822;28;20462;-77
2022/01/07 07:39:01;;;;;;;21.80;7.30;;;-2.70;99.90;;;;;;5031867;28;20048;-78
2022/01/07 07:41:27;;;;;;;23.10;7.83;;;-2.80;99.90;;;;;;5045515;28;20827;-77
2022/01/07 07:43:52;;;;;;;20.40;7.57;;;-2.70;99.90;;;;;;5050829;28;20032;-78
2022/01/07 07:46:19;;;;;;;22.77;8.13;;;-2.70;99.90;;;;;;5028857;28;20060;-77
2022/01/07 07:48:46;;;;;;;24.50;8.38;;;-2.70;99.90;;;;;;5047910;28;20132;-77
2022/01/07 07:51:13;;;;;;;25.27;8.07;;;-2.70;99.90;;;;;;5050175;28;20033;-76
2022/01/07 07:53:39;;;;;;;16.63;7.40;;;-2.70;99.90;;;;;;5051366;28;20033;-77
2022/01/07 07:56:05;;;;;;;25.15;9.00;;;-2.60;99.90;;;;;;5050897;28;20110;-70
2022/01/07 07:58:30;;;;;;;22.00;8.68;;;-2.60;99.90;;;;;;5050237;28;20493;-77
2022/01/07 08:00:57;;;;;;;25.50;10.05;;;-2.70;99.90;;;;;;5033476;28;20095;-77
2022/01/07 08:03:24;;;;;;;26.35;9.45;;;-2.70;99.90;;;;;;5044027;28;20032;-77
2022/01/07 08:05:50;;;;;;;22.73;7.88;;;-2.70;99.90;;;;;;5025878;28;20112;-78
2022/01/07 08:08:16;;;;;;;20.95;7.55;;;-2.60;99.90;;;;;;5031120;28;20112;-78
2022/01/07 08:10:48;;;;;;;26.30;8.85;;;-2.60;99.90;;;;;;5050172;28;20072;-77
2022/01/07 08:15:59;;;;;;;28.42;9.45;;;-2.50;99.90;;;;;;5037038;28;20041;-77
2022/01/07 08:18:30;;;;;;;28.05;10.20;;;-2.40;99.90;;;;;;5008419;28;20029;-77
2022/01/07 08:21:07;;;;;;;34.20;12.00;;;-2.40;99.90;;;;;;5033002;28;20478;-77
2022/01/07 08:23:35;;;;;;;35.88;12.75;;;-2.30;99.90;;;;;;5016545;28;20033;-77
2022/01/07 08:26:04;;;;;;;33.08;12.65;;;-2.20;99.90;;;;;;5035221;28;20087;-74
2022/01/07 08:28:37;;;;;;;32.50;9.77;;;-2.10;99.90;;;;;;5036329;28;20033;-78
2022/01/07 08:36:22;;;;;;;51.75;16.55;;;-1.70;99.90;;;;;;5033679;28;20036;-78
2022/01/07 08:38:49;;;;;;;85.63;23.55;;;-1.60;99.90;;;;;;5048092;28;20120;-80
2022/01/07 08:41:15;;;;;;;81.43;25.60;;;-1.50;99.90;;;;;;5039969;28;20039;-78
2022/01/07 08:43:41;;;;;;;69.85;20.52;;;-1.40;99.90;;;;;;5030469;28;20030;-76
2022/01/07 08:46:09;;;;;;;48.97;14.60;;;-1.30;99.90;;;;;;5030562;28;20382;-73
2022/01/07 08:48:35;;;;;;;34.00;10.90;;;-1.20;99.90;;;;;;5030720;28;20037;-77
2022/01/07 08:51:02;;;;;;;25.25;9.02;;;-1.10;99.90;;;;;;5030650;28;20104;-79
2022/01/07 08:53:28;;;;;;;22.85;8.43;;;-1.10;99.90;;;;;;5029744;28;20014;-80
2022/01/07 08:55:54;;;;;;;26.95;9.75;;;-1.00;99.90;;;;;;5040135;28;20036;-76
2022/01/07 08:58:20;;;;;;;28.10;10.82;;;-0.90;99.90;;;;;;5048365;28;20040;-78
2022/01/07 09:00:45;;;;;;;33.47;12.90;;;-0.80;99.90;;;;;;5047947;28;20029;-78
2022/01/07 09:03:11;;;;;;;35.75;13.73;;;-0.80;99.90;;;;;;5049284;28;20044;-79
2022/01/07 09:05:37;;;;;;;34.38;13.07;;;-0.70;99.90;;;;;;5050293;28;20486;-79
2022/01/07 09:08:02;;;;;;;29.60;12.63;;;-0.70;99.90;;;;;;5049797;28;20383;-78
2022/01/07 09:10:29;;;;;;;21.80;8.38;;;-0.60;99.90;;;;;;5031064;28;20218;-77
2022/01/07 09:12:54;;;;;;;24.15;8.38;;;-0.60;99.90;;;;;;5049751;28;20053;-76
2022/01/07 09:15:20;;;;;;;24.48;9.57;;;-0.60;99.90;;;;;;5049353;28;20044;-79
2022/01/07 09:17:46;;;;;;;28.02;9.52;;;-0.50;99.90;;;;;;5050164;28;20033;-79
2022/01/07 09:20:12;;;;;;;27.08;9.85;;;-0.50;99.90;;;;;;5031381;28;20072;-73
2022/01/07 09:22:39;;;;;;;29.45;8.70;;;-0.40;99.90;;;;;;5049933;28;20464;-78
2022/01/07 09:25:06;;;;;;;23.05;8.25;;;-0.30;99.90;;;;;;5043335;28;20029;-79
2022/01/07 09:27:32;;;;;;;27.70;8.55;;;-0.20;99.90;;;;;;5030112;28;20489;-76
2022/01/07 09:29:58;;;;;;;18.98;7.72;;;-0.10;99.90;;;;;;5033333;28;20037;-78
2022/01/07 09:32:24;;;;;;;23.25;8.40;;;-0.10;99.90;;;;;;5038252;28;20036;-75
2022/01/07 09:34:50;;;;;;;24.90;9.00;;;-0.10;99.90;;;;;;5030153;28;20079;-79
2022/01/07 09:37:16;;;;;;;23.95;8.65;;;-0.10;99.90;;;;;;5040939;28;20036;-80
2022/01/07 09:39:42;;;;;;;24.00;8.43;;;0.10;99.90;;;;;;5049645;28;20033;-77
2022/01/07 09:42:08;;;;;;;22.17;8.27;;;0.10;99.90;;;;;;5044752;28;20108;-79
2022/01/07 09:44:41;;;;;;;21.38;8.07;;;0.20;99.90;;;;;;5046483;28;20068;-76
2022/01/07 09:47:10;;;;;;;18.15;7.68;;;0.20;99.90;;;;;;5023018;28;20436;-77
2022/01/07 09:49:40;;;;;;;21.58;8.32;;;0.10;99.90;;;;;;5037630;28;20029;-78
2022/01/07 09:52:06;;;;;;;19.98;7.90;;;0.00;99.90;;;;;;5029687;28;20034;-79
2022/01/07 09:54:40;;;;;;;25.50;8.45;;;0.00;99.90;;;;;;5030359;28;20529;-78
2022/01/07 09:57:08;;;;;;;20.98;7.65;;;0.00;99.90;;;;;;5040140;28;20032;-79
2022/01/07 09:59:34;;;;;;;26.70;8.50;;;0.10;99.90;;;;;;5047502;28;20065;-80
2022/01/07 10:02:05;;;;;;;22.08;8.02;;;0.20;99.90;;;;;;5049337;28;20128;-81
2022/01/07 10:04:39;;;;;;;20.88;7.82;;;0.30;99.90;;;;;;5048644;28;20044;-80
2022/01/07 10:07:23;;;;;;;22.60;8.55;;;0.50;99.90;;;;;;5049194;28;20060;-82
2022/01/07 10:10:02;;;;;;;22.90;8.38;;;0.50;99.90;;;;;;5029588;28;20052;-83
2022/01/07 10:12:31;;;;;;;33.88;11.10;;;0.50;99.90;;;;;;5028331;28;20501;-80
2022/01/07 10:15:11;;;;;;;35.03;12.63;;;0.50;99.90;;;;;;5029343;28;20034;-83
2022/01/07 10:17:37;;;;;;;24.40;10.07;;;0.50;99.90;;;;;;5028823;28;20037;-81
2022/01/07 10:20:03;;;;;;;31.50;11.07;;;0.40;99.90;;;;;;5029076;28;20032;-81
2022/01/07 10:22:46;;;;;;;24.92;8.93;;;0.50;99.90;;;;;;5011223;28;20037;-83
2022/01/07 10:25:20;;;;;;;24.10;8.00;;;0.50;99.90;;;;;;5030884;28;20033;-72
2022/01/07 10:27:46;;;;;;;20.95;7.53;;;0.50;99.90;;;;;;5034384;28;20075;-82
2022/01/07 10:30:13;;;;;;;22.58;7.70;;;0.60;99.90;;;;;;5048988;28;20433;-73
2022/01/07 10:32:40;;;;;;;20.25;7.70;;;0.60;99.90;;;;;;5048906;28;20025;-81
2022/01/07 10:35:13;;;;;;;20.38;7.43;;;0.60;99.90;;;;;;5049403;28;20489;-82
2022/01/07 10:37:57;;;;;;;17.55;7.53;;;0.60;99.90;;;;;;5048608;28;20473;-79
2022/01/07 10:40:32;;;;;;;25.08;7.60;;;0.70;99.90;;;;;;5048243;28;20052;-80
2022/01/07 10:43:17;;;;;;;16.65;6.78;;;0.70;99.90;;;;;;5047426;28;20108;-79
2022/01/07 10:45:46;;;;;;;17.75;6.40;;;0.70;99.90;;;;;;5034792;28;20103;-82
2022/01/07 10:48:12;;;;;;;20.52;6.35;;;0.70;99.90;;;;;;5028884;28;20052;-77
2022/01/07 10:50:46;;;;;;;18.95;6.28;;;0.70;99.90;;;;;;5028415;28;20108;-79
2022/01/07 10:53:29;;;;;;;20.15;7.70;;;0.70;99.90;;;;;;5031590;28;20033;-80
2022/01/07 10:56:15;;;;;;;19.95;6.93;;;0.80;99.90;;;;;;5031756;28;20087;-79
2022/01/07 10:58:46;;;;;;;22.73;6.90;;;0.80;99.90;;;;;;5032486;28;20044;-80
2022/01/07 11:01:21;;;;;;;18.65;6.68;;;0.80;99.90;;;;;;5041545;28;20037;-81
2022/01/07 11:03:48;;;;;;;18.95;6.68;;;0.80;99.90;;;;;;5050762;28;20033;-79
2022/01/07 11:06:14;;;;;;;17.70;5.97;;;0.90;99.90;;;;;;5052195;28;20102;-73
2022/01/07 11:08:40;;;;;;;19.73;6.30;;;0.90;99.90;;;;;;5052066;28;20037;-79
2022/01/07 11:11:08;;;;;;;19.08;6.13;;;0.90;99.90;;;;;;5052407;28;20028;-80
2022/01/07 11:13:35;;;;;;;15.73;6.25;;;0.90;99.90;;;;;;5040771;28;20053;-77
2022/01/07 11:16:04;;;;;;;15.98;6.40;;;0.90;99.90;;;;;;5042248;28;20041;-80
2022/01/07 11:18:31;;;;;;;18.97;5.73;;;0.90;99.90;;;;;;5051352;28;20098;-80
2022/01/07 11:20:58;;;;;;;14.73;5.65;;;1.00;99.90;;;;;;5052208;28;20120;-82
2022/01/07 11:23:27;;;;;;;13.68;5.45;;;1.00;99.90;;;;;;5051413;28;20029;-79
2022/01/07 11:26:11;;;;;;;15.80;5.63;;;1.00;99.90;;;;;;5051837;28;20029;-81
2022/01/07 11:28:52;;;;;;;15.75;5.57;;;1.00;99.90;;;;;;5051409;28;20035;-84
2022/01/07 11:31:17;;;;;;;15.18;5.20;;;1.10;99.90;;;;;;5034347;28;20025;-75
2022/01/07 11:33:43;;;;;;;17.15;5.20;;;1.10;99.90;;;;;;5053624;28;20393;-81
2022/01/07 11:36:34;;;;;;;20.05;6.35;;;1.10;99.90;;;;;;5021488;28;20119;-81
2022/01/07 11:39:00;;;;;;;;;;;1.10;99.90;;;;;;5032936;28;20040;-80
2022/01/07 11:41:47;;;;;;;14.40;5.28;;;1.20;99.90;;;;;;5013512;28;19988;-84
2022/01/07 11:44:22;;;;;;;19.33;5.45;;;1.20;99.90;;;;;;5014295;28;20036;-81
2022/01/07 11:46:48;;;;;;;16.20;5.90;;;1.20;99.90;;;;;;5031782;28;20344;-82
2022/01/07 11:49:32;;;;;;;14.43;5.32;;;1.20;99.90;;;;;;5031979;28;20484;-80
2022/01/07 11:52:18;;;;;;;16.95;6.50;;;1.20;99.90;;;;;;5045045;28;20025;-83
2022/01/07 11:55:03;;;;;;;19.63;6.57;;;1.20;99.90;;;;;;5050943;28;20555;-82
2022/01/07 11:57:47;;;;;;;14.95;6.03;;;1.20;99.90;;;;;;5050506;28;20029;-84
2022/01/07 12:00:12;;;;;;;17.75;5.88;;;1.30;99.90;;;;;;5033710;28;20033;-82
2022/01/07 12:03:01;;;;;;;19.95;6.65;;;1.30;99.90;;;;;;5050486;28;20488;-82
2022/01/07 12:05:31;;;;;;;18.13;6.45;;;1.20;99.90;;;;;;5049968;28;20115;-82
2022/01/07 12:07:57;;;;;;;19.15;6.35;;;1.20;99.90;;;;;;5036799;28;20041;-81
2022/01/07 12:10:23;;;;;;;20.20;6.40;;;1.10;99.90;;;;;;5036544;28;20040;-79
2022/01/07 12:12:57;;;;;;;23.33;7.45;;;1.10;99.90;;;;;;5046261;28;20044;-82
2022/01/07 12:15:22;;;;;;;20.85;7.50;;;0.90;99.90;;;;;;5045459;28;20033;-82
2022/01/07 12:17:48;;;;;;;21.27;6.97;;;0.80;99.90;;;;;;5045946;28;20477;-81
2022/01/07 12:20:35;;;;;;;20.70;7.53;;;0.60;99.90;;;;;;5042729;28;20047;-81
2022/01/07 12:23:01;;;;;;;18.02;6.88;;;0.60;99.90;;;;;;5034507;28;20064;-82
2022/01/07 12:25:27;;;;;;;26.00;8.25;;;0.50;99.90;;;;;;5030596;28;20065;-81
2022/01/07 12:28:00;;;;;;;22.73;8.45;;;0.50;99.90;;;;;;5025546;28;20036;-82
2022/01/07 12:30:27;;;;;;;24.38;8.00;;;0.40;99.90;;;;;;5045429;28;20052;-82
2022/01/07 12:32:58;;;;;;;25.58;9.20;;;0.50;99.90;;;;;;5018634;28;20032;-81
2022/01/07 12:35:29;;;;;;;25.48;9.30;;;0.50;99.90;;;;;;5030161;28;20044;-78
2022/01/07 12:37:55;;;;;;;28.80;9.48;;;0.60;99.90;;;;;;5037382;28;20044;-79
2022/01/07 12:40:22;;;;;;;28.33;9.30;;;0.50;99.90;;;;;;5040642;28;20469;-75
2022/01/07 12:42:47;;;;;;;28.90;9.10;;;0.50;99.90;;;;;;5043281;28;20033;-81
2022/01/07 12:45:15;;;;;;;28.00;8.98;;;0.60;99.90;;;;;;5042230;28;20090;-81
2022/01/07 12:47:41;;;;;;;29.45;10.35;;;0.50;99.90;;;;;;5045817;28;20090;-86
2022/01/07 12:50:07;;;;;;;32.17;10.38;;;0.50;99.90;;;;;;5052896;28;20438;-83